sensor_id;sensor_type;location;lat;lon;timestamp;temperature;humidity
26623;DHT22;14254;50.968;5.366;2023-10-09T00:00:53;15.80;99.90
26623;DHT22;14254;50.968;5.366;2023-10-09T00:03:27;15.70;99.90
26623;DHT22;14254;50.968;5.366;2023-10-09T00:05:54;15.60;99.90
26623;DHT22;14254;50.968;5.366;2023-10-09T00:08:20;15.30;99.90
26623;DHT22;14254;50.968;5.366;2023-10-09T00:10:57;15.30;99.90
26623;DHT22;14254;50.968;5.366;2023-10-09T00:13:24;15.40;99.90
26623;DHT22;14254;50.968;5.366;2023-10-09T00:16:03;15.40;99.90
26623;DHT22;14254;50.968;5.366;2023-10-09T00:18:34;15.20;99.90
26623;DHT22;14254;50.968;5.366;2023-10-09T00:21:00;15.30;99.90
26623;DHT22;14254;50.968;5.366;2023-10-09T00:23:27;15.50;99.90
26623;DHT22;14254;50.968;5.366;2023-10-09T00:25:53;15.50;99.90
26623;DHT22;14254;50.968;5.366;2023-10-09T00:28:39;15.70;99.90
26623;DHT22;14254;50.968;5.366;2023-10-09T00:31:10;15.80;99.90
26623;DHT22;14254;50.968;5.366;2023-10-09T00:33:44;15.60;99.90
26623;DHT22;14254;50.968;5.366;2023-10-09T00:36:11;15.40;99.90
26623;DHT22;14254;50.968;5.366;2023-10-09T00:38:40;15.60;99.90
26623;DHT22;14254;50.968;5.366;2023-10-09T00:41:10;15.70;99.90
26623;DHT22;14254;50.968;5.366;2023-10-09T00:43:37;15.40;99.90
26623;DHT22;14254;50.968;5.366;2023-10-09T00:46:05;15.50;99.90
26623;DHT22;14254;50.968;5.366;2023-10-09T00:48:51;15.60;99.90
26623;DHT22;14254;50.968;5.366;2023-10-09T00:51:17;15.50;99.90
26623;DHT22;14254;50.968;5.366;2023-10-09T00:53:56;15.40;99.90
26623;DHT22;14254;50.968;5.366;2023-10-09T00:56:25;15.60;99.90
26623;DHT22;14254;50.968;5.366;2023-10-09T00:58:55;15.80;99.90
26623;DHT22;14254;50.968;5.366;2023-10-09T01:01:26;16.10;99.90
26623;DHT22;14254;50.968;5.366;2023-10-09T01:04:01;16.20;99.90
26623;DHT22;14254;50.968;5.366;2023-10-09T01:06:38;16.30;99.90
26623;DHT22;14254;50.968;5.366;2023-10-09T01:09:11;16.50;99.90
26623;DHT22;14254;50.968;5.366;2023-10-09T01:11:43;16.60;99.90
26623;DHT22;14254;50.968;5.366;2023-10-09T01:14:29;16.60;99.90
26623;DHT22;14254;50.968;5.366;2023-10-09T01:16:56;16.60;99.90
26623;DHT22;14254;50.968;5.366;2023-10-09T01:19:22;16.70;99.90
26623;DHT22;14254;50.968;5.366;2023-10-09T01:21:53;16.80;99.90
26623;DHT22;14254;50.968;5.366;2023-10-09T01:24:20;16.90;99.90
26623;DHT22;14254;50.968;5.366;2023-10-09T01:26:46;17.00;99.90
26623;DHT22;14254;50.968;5.366;2023-10-09T01:36:53;17.10;99.90
26623;DHT22;14254;50.968;5.366;2023-10-09T01:39:25;17.10;99.90
26623;DHT22;14254;50.968;5.366;2023-10-09T01:42:05;17.10;99.90
26623;DHT22;14254;50.968;5.366;2023-10-09T01:44:32;17.10;99.90
26623;DHT22;14254;50.968;5.366;2023-10-09T01:47:06;17.10;99.90
26623;DHT22;14254;50.968;5.366;2023-10-09T01:49:39;17.10;99.90
26623;DHT22;14254;50.968;5.366;2023-10-09T01:52:09;17.10;99.90
26623;DHT22;14254;50.968;5.366;2023-10-09T01:54:39;17.00;99.90
26623;DHT22;14254;50.968;5.366;2023-10-09T01:57:14;17.10;99.90
26623;DHT22;14254;50.968;5.366;2023-10-09T01:59:48;17.10;99.90
26623;DHT22;14254;50.968;5.366;2023-10-09T02:02:19;17.10;99.90
26623;DHT22;14254;50.968;5.366;2023-10-09T02:05:04;17.20;99.90
26623;DHT22;14254;50.968;5.366;2023-10-09T02:07:36;17.20;99.90
26623;DHT22;14254;50.968;5.366;2023-10-09T02:10:22;17.20;99.90
26623;DHT22;14254;50.968;5.366;2023-10-09T02:13:01;17.30;99.90
26623;DHT22;14254;50.968;5.366;2023-10-09T02:15:33;17.30;99.90
26623;DHT22;14254;50.968;5.366;2023-10-09T02:18:26;17.30;99.90
26623;DHT22;14254;50.968;5.366;2023-10-09T02:21:04;17.40;99.90
26623;DHT22;14254;50.968;5.366;2023-10-09T02:23:33;17.30;99.90
26623;DHT22;14254;50.968;5.366;2023-10-09T02:26:12;17.30;99.90
26623;DHT22;14254;50.968;5.366;2023-10-09T02:28:55;17.30;99.90
26623;DHT22;14254;50.968;5.366;2023-10-09T02:31:25;17.20;99.90
26623;DHT22;14254;50.968;5.366;2023-10-09T02:33:53;17.20;99.90
26623;DHT22;14254;50.968;5.366;2023-10-09T02:36:21;17.30;99.90
26623;DHT22;14254;50.968;5.366;2023-10-09T02:38:47;17.30;99.90
26623;DHT22;14254;50.968;5.366;2023-10-09T02:41:15;17.20;99.90
26623;DHT22;14254;50.968;5.366;2023-10-09T02:43:41;17.20;99.90
26623;DHT22;14254;50.968;5.366;2023-10-09T02:46:11;17.20;99.90
26623;DHT22;14254;50.968;5.366;2023-10-09T02:48:47;17.20;99.90
26623;DHT22;14254;50.968;5.366;2023-10-09T02:51:23;17.20;99.90
26623;DHT22;14254;50.968;5.366;2023-10-09T02:53:53;17.10;99.90
26623;DHT22;14254;50.968;5.366;2023-10-09T02:56:20;17.20;99.90
26623;DHT22;14254;50.968;5.366;2023-10-09T02:59:06;17.20;99.90
26623;DHT22;14254;50.968;5.366;2023-10-09T03:01:33;17.20;99.90
26623;DHT22;14254;50.968;5.366;2023-10-09T03:04:06;17.20;99.90
26623;DHT22;14254;50.968;5.366;2023-10-09T03:06:36;17.20;99.90
26623;DHT22;14254;50.968;5.366;2023-10-09T03:09:09;17.10;99.90
26623;DHT22;14254;50.968;5.366;2023-10-09T03:11:47;17.10;99.90
26623;DHT22;14254;50.968;5.366;2023-10-09T03:14:21;17.10;99.90
26623;DHT22;14254;50.968;5.366;2023-10-09T03:16:50;17.10;99.90
26623;DHT22;14254;50.968;5.366;2023-10-09T03:19:16;17.10;99.90
26623;DHT22;14254;50.968;5.366;2023-10-09T03:21:42;17.10;99.90
26623;DHT22;14254;50.968;5.366;2023-10-09T03:24:09;17.10;99.90
26623;DHT22;14254;50.968;5.366;2023-10-09T03:26:37;17.10;99.90
26623;DHT22;14254;50.968;5.366;2023-10-09T03:29:03;17.20;99.90
26623;DHT22;14254;50.968;5.366;2023-10-09T03:31:35;17.20;99.90
26623;DHT22;14254;50.968;5.366;2023-10-09T03:34:02;17.30;99.90
26623;DHT22;14254;50.968;5.366;2023-10-09T03:36:28;17.30;99.90
26623;DHT22;14254;50.968;5.366;2023-10-09T03:38:57;17.20;99.90
26623;DHT22;14254;50.968;5.366;2023-10-09T03:41:23;17.10;99.90
26623;DHT22;14254;50.968;5.366;2023-10-09T03:43:52;17.10;99.90
26623;DHT22;14254;50.968;5.366;2023-10-09T03:46:17;17.10;99.90
26623;DHT22;14254;50.968;5.366;2023-10-09T03:48:50;17.10;99.90
26623;DHT22;14254;50.968;5.366;2023-10-09T03:51:22;17.20;99.90
26623;DHT22;14254;50.968;5.366;2023-10-09T03:53:49;17.20;99.90
26623;DHT22;14254;50.968;5.366;2023-10-09T03:56:16;17.20;99.90
26623;DHT22;14254;50.968;5.366;2023-10-09T03:58:45;17.20;99.90
26623;DHT22;14254;50.968;5.366;2023-10-09T04:01:16;17.20;99.90
26623;DHT22;14254;50.968;5.366;2023-10-09T04:03:58;17.10;99.90
26623;DHT22;14254;50.968;5.366;2023-10-09T04:06:28;17.10;99.90
26623;DHT22;14254;50.968;5.366;2023-10-09T04:09:02;17.20;99.90
26623;DHT22;14254;50.968;5.366;2023-10-09T04:11:53;17.10;99.90
26623;DHT22;14254;50.968;5.366;2023-10-09T04:14:38;17.20;99.90
26623;DHT22;14254;50.968;5.366;2023-10-09T04:17:14;16.90;99.90
26623;DHT22;14254;50.968;5.366;2023-10-09T04:19:58;16.70;99.90
26623;DHT22;14254;50.968;5.366;2023-10-09T04:22:59;16.70;99.90
26623;DHT22;14254;50.968;5.366;2023-10-09T04:25:30;16.80;99.90
26623;DHT22;14254;50.968;5.366;2023-10-09T04:28:06;16.90;99.90
26623;DHT22;14254;50.968;5.366;2023-10-09T04:30:38;16.80;99.90
26623;DHT22;14254;50.968;5.366;2023-10-09T04:33:12;16.80;99.90
26623;DHT22;14254;50.968;5.366;2023-10-09T04:36:09;17.00;99.90
26623;DHT22;14254;50.968;5.366;2023-10-09T04:38:44;17.00;99.90
26623;DHT22;14254;50.968;5.366;2023-10-09T04:41:45;17.00;99.90
26623;DHT22;14254;50.968;5.366;2023-10-09T04:44:10;17.10;99.90
26623;DHT22;14254;50.968;5.366;2023-10-09T04:46:49;17.10;99.90
26623;DHT22;14254;50.968;5.366;2023-10-09T04:49:34;17.10;99.90
26623;DHT22;14254;50.968;5.366;2023-10-09T04:52:27;17.10;99.90
26623;DHT22;14254;50.968;5.366;2023-10-09T04:54:59;17.10;99.90
26623;DHT22;14254;50.968;5.366;2023-10-09T04:57:44;17.20;99.90
26623;DHT22;14254;50.968;5.366;2023-10-09T05:00:11;17.20;99.90
26623;DHT22;14254;50.968;5.366;2023-10-09T05:02:54;17.20;99.90
26623;DHT22;14254;50.968;5.366;2023-10-09T05:05:29;17.10;99.90
26623;DHT22;14254;50.968;5.366;2023-10-09T05:08:11;17.20;99.90
26623;DHT22;14254;50.968;5.366;2023-10-09T05:11:02;17.20;99.90
26623;DHT22;14254;50.968;5.366;2023-10-09T05:16:08;17.30;99.90
26623;DHT22;14254;50.968;5.366;2023-10-09T05:18:55;17.30;99.90
26623;DHT22;14254;50.968;5.366;2023-10-09T05:21:37;17.20;99.90
26623;DHT22;14254;50.968;5.366;2023-10-09T05:24:13;17.10;99.90
26623;DHT22;14254;50.968;5.366;2023-10-09T05:26:40;17.10;99.90
26623;DHT22;14254;50.968;5.366;2023-10-09T05:29:12;17.20;99.90
26623;DHT22;14254;50.968;5.366;2023-10-09T05:31:57;17.30;99.90
26623;DHT22;14254;50.968;5.366;2023-10-09T05:34:23;17.30;99.90
26623;DHT22;14254;50.968;5.366;2023-10-09T05:36:59;17.30;99.90
26623;DHT22;14254;50.968;5.366;2023-10-09T05:39:45;17.30;99.90
26623;DHT22;14254;50.968;5.366;2023-10-09T05:42:33;17.30;99.90
26623;DHT22;14254;50.968;5.366;2023-10-09T05:47:46;17.10;99.90
26623;DHT22;14254;50.968;5.366;2023-10-09T05:50:31;17.00;99.90
26623;DHT22;14254;50.968;5.366;2023-10-09T05:53:01;17.00;99.90
26623;DHT22;14254;50.968;5.366;2023-10-09T05:55:27;17.00;99.90
26623;DHT22;14254;50.968;5.366;2023-10-09T05:58:12;16.90;99.90
26623;DHT22;14254;50.968;5.366;2023-10-09T06:00:56;16.70;99.90
26623;DHT22;14254;50.968;5.366;2023-10-09T06:03:50;16.70;99.90
26623;DHT22;14254;50.968;5.366;2023-10-09T06:06:29;16.70;99.90
26623;DHT22;14254;50.968;5.366;2023-10-09T06:09:05;16.80;99.90
26623;DHT22;14254;50.968;5.366;2023-10-09T06:11:49;16.90;99.90
26623;DHT22;14254;50.968;5.366;2023-10-09T06:14:24;16.90;99.90
26623;DHT22;14254;50.968;5.366;2023-10-09T06:16:58;17.00;99.90
26623;DHT22;14254;50.968;5.366;2023-10-09T06:19:27;17.10;99.90
26623;DHT22;14254;50.968;5.366;2023-10-09T06:21:58;17.20;99.90
26623;DHT22;14254;50.968;5.366;2023-10-09T06:24:43;17.20;99.90
26623;DHT22;14254;50.968;5.366;2023-10-09T06:27:20;17.20;99.90
26623;DHT22;14254;50.968;5.366;2023-10-09T06:29:56;17.10;99.90
26623;DHT22;14254;50.968;5.366;2023-10-09T06:32:50;17.20;99.90
26623;DHT22;14254;50.968;5.366;2023-10-09T06:35:36;17.10;99.90
26623;DHT22;14254;50.968;5.366;2023-10-09T06:38:05;17.10;99.90
26623;DHT22;14254;50.968;5.366;2023-10-09T06:43:31;17.20;99.90
26623;DHT22;14254;50.968;5.366;2023-10-09T06:46:02;17.10;99.90
26623;DHT22;14254;50.968;5.366;2023-10-09T06:48:46;17.20;99.90
26623;DHT22;14254;50.968;5.366;2023-10-09T06:51:21;17.20;99.90
26623;DHT22;14254;50.968;5.366;2023-10-09T06:53:54;17.20;99.90
26623;DHT22;14254;50.968;5.366;2023-10-09T06:56:27;17.30;99.90
26623;DHT22;14254;50.968;5.366;2023-10-09T06:59:03;17.30;99.90
26623;DHT22;14254;50.968;5.366;2023-10-09T07:01:39;17.30;99.90
26623;DHT22;14254;50.968;5.366;2023-10-09T07:04:14;17.30;99.90
26623;DHT22;14254;50.968;5.366;2023-10-09T07:07:06;17.40;99.90
26623;DHT22;14254;50.968;5.366;2023-10-09T07:09:46;17.30;99.90
26623;DHT22;14254;50.968;5.366;2023-10-09T07:12:32;17.20;99.90
26623;DHT22;14254;50.968;5.366;2023-10-09T07:15:01;17.40;99.90
26623;DHT22;14254;50.968;5.366;2023-10-09T07:17:47;17.50;99.90
26623;DHT22;14254;50.968;5.366;2023-10-09T07:20:13;17.50;99.90
26623;DHT22;14254;50.968;5.366;2023-10-09T07:22:38;17.60;99.90
26623;DHT22;14254;50.968;5.366;2023-10-09T07:25:23;17.50;99.90
26623;DHT22;14254;50.968;5.366;2023-10-09T07:28:15;17.50;99.90
26623;DHT22;14254;50.968;5.366;2023-10-09T07:30:47;17.60;99.90
26623;DHT22;14254;50.968;5.366;2023-10-09T07:33:13;17.70;99.90
26623;DHT22;14254;50.968;5.366;2023-10-09T07:35:39;17.70;99.90
26623;DHT22;14254;50.968;5.366;2023-10-09T07:38:16;17.70;99.90
26623;DHT22;14254;50.968;5.366;2023-10-09T07:40:48;17.60;99.90
26623;DHT22;14254;50.968;5.366;2023-10-09T07:43:33;17.70;99.90
26623;DHT22;14254;50.968;5.366;2023-10-09T07:46:11;17.50;99.90
26623;DHT22;14254;50.968;5.366;2023-10-09T07:49:05;17.60;99.90
26623;DHT22;14254;50.968;5.366;2023-10-09T07:51:46;17.80;99.90
26623;DHT22;14254;50.968;5.366;2023-10-09T07:54:13;17.90;99.90
26623;DHT22;14254;50.968;5.366;2023-10-09T07:56:58;18.00;99.90
26623;DHT22;14254;50.968;5.366;2023-10-09T07:59:34;18.10;99.90
26623;DHT22;14254;50.968;5.366;2023-10-09T08:02:06;18.20;99.90
26623;DHT22;14254;50.968;5.366;2023-10-09T08:04:39;18.30;99.90
26623;DHT22;14254;50.968;5.366;2023-10-09T08:07:14;18.40;99.90
26623;DHT22;14254;50.968;5.366;2023-10-09T08:09:56;18.40;99.90
26623;DHT22;14254;50.968;5.366;2023-10-09T08:12:42;18.50;99.90
26623;DHT22;14254;50.968;5.366;2023-10-09T08:15:15;18.60;99.90
26623;DHT22;14254;50.968;5.366;2023-10-09T08:17:54;18.70;99.90
26623;DHT22;14254;50.968;5.366;2023-10-09T08:20:23;18.80;99.90
26623;DHT22;14254;50.968;5.366;2023-10-09T08:22:55;18.80;99.90
26623;DHT22;14254;50.968;5.366;2023-10-09T08:25:22;18.80;99.90
26623;DHT22;14254;50.968;5.366;2023-10-09T08:28:02;18.70;99.90
26623;DHT22;14254;50.968;5.366;2023-10-09T08:30:39;18.80;99.90
26623;DHT22;14254;50.968;5.366;2023-10-09T08:33:20;18.80;99.90
26623;DHT22;14254;50.968;5.366;2023-10-09T08:35:56;18.90;99.90
26623;DHT22;14254;50.968;5.366;2023-10-09T08:38:30;19.10;99.90
26623;DHT22;14254;50.968;5.366;2023-10-09T08:41:12;19.30;99.90
26623;DHT22;14254;50.968;5.366;2023-10-09T08:43:51;19.20;99.90
26623;DHT22;14254;50.968;5.366;2023-10-09T08:46:27;19.10;99.90
26623;DHT22;14254;50.968;5.366;2023-10-09T08:48:57;19.10;99.90
26623;DHT22;14254;50.968;5.366;2023-10-09T08:51:30;19.10;99.90
26623;DHT22;14254;50.968;5.366;2023-10-09T08:53:56;19.20;99.90
26623;DHT22;14254;50.968;5.366;2023-10-09T08:56:22;19.20;99.90
26623;DHT22;14254;50.968;5.366;2023-10-09T08:58:53;19.30;99.90
26623;DHT22;14254;50.968;5.366;2023-10-09T09:01:20;19.40;99.90
26623;DHT22;14254;50.968;5.366;2023-10-09T09:03:48;19.40;99.90
26623;DHT22;14254;50.968;5.366;2023-10-09T09:06:14;19.50;99.90
26623;DHT22;14254;50.968;5.366;2023-10-09T09:08:40;19.70;99.90
26623;DHT22;14254;50.968;5.366;2023-10-09T09:11:12;19.90;99.90
26623;DHT22;14254;50.968;5.366;2023-10-09T09:13:47;19.90;99.90
26623;DHT22;14254;50.968;5.366;2023-10-09T09:16:23;20.00;99.90
26623;DHT22;14254;50.968;5.366;2023-10-09T09:19:02;20.20;99.90
26623;DHT22;14254;50.968;5.366;2023-10-09T09:21:39;20.30;99.90
26623;DHT22;14254;50.968;5.366;2023-10-09T09:24:08;20.30;99.90
26623;DHT22;14254;50.968;5.366;2023-10-09T09:27:01;20.40;99.90
26623;DHT22;14254;50.968;5.366;2023-10-09T09:32:11;20.80;99.90
26623;DHT22;14254;50.968;5.366;2023-10-09T09:34:50;21.00;99.90
26623;DHT22;14254;50.968;5.366;2023-10-09T09:37:25;20.90;99.90
26623;DHT22;14254;50.968;5.366;2023-10-09T09:40:03;21.10;99.90
26623;DHT22;14254;50.968;5.366;2023-10-09T09:42:50;21.10;99.90
26623;DHT22;14254;50.968;5.366;2023-10-09T09:45:17;21.20;99.90
26623;DHT22;14254;50.968;5.366;2023-10-09T09:47:49;21.40;99.90
26623;DHT22;14254;50.968;5.366;2023-10-09T09:50:19;21.80;99.90
26623;DHT22;14254;50.968;5.366;2023-10-09T09:52:54;21.90;99.90
26623;DHT22;14254;50.968;5.366;2023-10-09T09:55:19;22.00;99.90
26623;DHT22;14254;50.968;5.366;2023-10-09T09:57:56;22.10;99.90
26623;DHT22;14254;50.968;5.366;2023-10-09T10:00:31;22.20;99.90
26623;DHT22;14254;50.968;5.366;2023-10-09T10:03:34;22.10;99.90
26623;DHT22;14254;50.968;5.366;2023-10-09T10:06:02;22.00;99.90
26623;DHT22;14254;50.968;5.366;2023-10-09T10:08:35;22.00;99.90
26623;DHT22;14254;50.968;5.366;2023-10-09T10:11:05;21.90;99.90
26623;DHT22;14254;50.968;5.366;2023-10-09T10:16:13;22.10;99.90
26623;DHT22;14254;50.968;5.366;2023-10-09T10:19:02;22.10;99.90
26623;DHT22;14254;50.968;5.366;2023-10-09T10:21:43;22.10;99.90
26623;DHT22;14254;50.968;5.366;2023-10-09T10:27:15;22.30;99.90
26623;DHT22;14254;50.968;5.366;2023-10-09T10:32:58;22.60;99.90
26623;DHT22;14254;50.968;5.366;2023-10-09T10:35:35;22.50;99.90
26623;DHT22;14254;50.968;5.366;2023-10-09T10:40:50;22.80;99.90
26623;DHT22;14254;50.968;5.366;2023-10-09T10:43:26;22.70;99.90
26623;DHT22;14254;50.968;5.366;2023-10-09T10:46:05;22.60;99.90
26623;DHT22;14254;50.968;5.366;2023-10-09T10:48:39;22.70;99.90
26623;DHT22;14254;50.968;5.366;2023-10-09T10:51:06;22.60;99.90
26623;DHT22;14254;50.968;5.366;2023-10-09T10:53:32;22.70;99.90
26623;DHT22;14254;50.968;5.366;2023-10-09T10:56:13;22.70;99.90
26623;DHT22;14254;50.968;5.366;2023-10-09T10:58:42;22.80;99.90
26623;DHT22;14254;50.968;5.366;2023-10-09T11:01:21;22.70;99.90
26623;DHT22;14254;50.968;5.366;2023-10-09T11:03:51;22.80;99.90
26623;DHT22;14254;50.968;5.366;2023-10-09T11:06:31;22.90;99.90
26623;DHT22;14254;50.968;5.366;2023-10-09T11:09:07;22.90;99.90
26623;DHT22;14254;50.968;5.366;2023-10-09T11:11:48;23.00;99.90
26623;DHT22;14254;50.968;5.366;2023-10-09T11:14:14;23.10;99.90
26623;DHT22;14254;50.968;5.366;2023-10-09T11:16:41;23.20;99.90
26623;DHT22;14254;50.968;5.366;2023-10-09T11:19:11;23.30;99.90
26623;DHT22;14254;50.968;5.366;2023-10-09T11:21:53;23.40;99.90
26623;DHT22;14254;50.968;5.366;2023-10-09T11:24:32;23.60;99.90
26623;DHT22;14254;50.968;5.366;2023-10-09T11:27:05;23.80;99.90
26623;DHT22;14254;50.968;5.366;2023-10-09T11:29:32;24.00;99.90
26623;DHT22;14254;50.968;5.366;2023-10-09T11:34:49;24.10;99.90
26623;DHT22;14254;50.968;5.366;2023-10-09T11:37:19;24.30;99.90
26623;DHT22;14254;50.968;5.366;2023-10-09T11:39:54;24.30;99.90
26623;DHT22;14254;50.968;5.366;2023-10-09T11:42:22;24.30;99.90
26623;DHT22;14254;50.968;5.366;2023-10-09T11:45:07;24.30;99.90
26623;DHT22;14254;50.968;5.366;2023-10-09T11:47:47;24.40;99.90
26623;DHT22;14254;50.968;5.366;2023-10-09T11:50:45;24.50;99.90
26623;DHT22;14254;50.968;5.366;2023-10-09T11:53:18;24.40;99.90
26623;DHT22;14254;50.968;5.366;2023-10-09T11:55:50;24.40;99.90
26623;DHT22;14254;50.968;5.366;2023-10-09T11:58:21;24.50;99.90
26623;DHT22;14254;50.968;5.366;2023-10-09T12:00:54;24.60;99.90
26623;DHT22;14254;50.968;5.366;2023-10-09T12:03:29;24.90;99.90
26623;DHT22;14254;50.968;5.366;2023-10-09T12:05:56;25.30;99.90
26623;DHT22;14254;50.968;5.366;2023-10-09T12:08:25;25.20;99.90
26623;DHT22;14254;50.968;5.366;2023-10-09T12:10:54;25.30;99.90
26623;DHT22;14254;50.968;5.366;2023-10-09T12:13:22;25.20;99.90
26623;DHT22;14254;50.968;5.366;2023-10-09T12:15:49;25.50;99.90
26623;DHT22;14254;50.968;5.366;2023-10-09T12:18:19;25.50;99.90
26623;DHT22;14254;50.968;5.366;2023-10-09T12:20:45;25.40;99.90
26623;DHT22;14254;50.968;5.366;2023-10-09T12:23:18;25.10;99.90
26623;DHT22;14254;50.968;5.366;2023-10-09T12:25:44;25.00;99.90
26623;DHT22;14254;50.968;5.366;2023-10-09T12:28:10;24.90;99.90
26623;DHT22;14254;50.968;5.366;2023-10-09T12:30:38;24.60;99.90
26623;DHT22;14254;50.968;5.366;2023-10-09T12:33:07;24.50;99.90
26623;DHT22;14254;50.968;5.366;2023-10-09T12:35:38;24.40;99.90
26623;DHT22;14254;50.968;5.366;2023-10-09T12:38:05;24.20;99.90
26623;DHT22;14254;50.968;5.366;2023-10-09T12:40:36;24.40;99.90
26623;DHT22;14254;50.968;5.366;2023-10-09T12:43:01;24.60;99.90
26623;DHT22;14254;50.968;5.366;2023-10-09T12:45:27;24.60;99.90
26623;DHT22;14254;50.968;5.366;2023-10-09T12:47:58;24.50;99.90
26623;DHT22;14254;50.968;5.366;2023-10-09T12:50:30;24.60;99.90
26623;DHT22;14254;50.968;5.366;2023-10-09T12:52:59;24.30;99.90
26623;DHT22;14254;50.968;5.366;2023-10-09T12:55:31;24.40;99.90
26623;DHT22;14254;50.968;5.366;2023-10-09T12:58:00;24.30;99.90
26623;DHT22;14254;50.968;5.366;2023-10-09T13:00:32;24.40;99.90
26623;DHT22;14254;50.968;5.366;2023-10-09T13:02:58;24.40;99.90
26623;DHT22;14254;50.968;5.366;2023-10-09T13:05:28;24.20;99.90
26623;DHT22;14254;50.968;5.366;2023-10-09T13:07:53;24.10;99.90
26623;DHT22;14254;50.968;5.366;2023-10-09T13:10:23;24.00;99.90
26623;DHT22;14254;50.968;5.366;2023-10-09T13:12:49;23.90;99.90
26623;DHT22;14254;50.968;5.366;2023-10-09T13:15:20;23.80;99.90
26623;DHT22;14254;50.968;5.366;2023-10-09T13:17:46;23.90;99.90
26623;DHT22;14254;50.968;5.366;2023-10-09T13:20:12;23.70;99.90
26623;DHT22;14254;50.968;5.366;2023-10-09T13:22:39;23.60;99.90
26623;DHT22;14254;50.968;5.366;2023-10-09T13:25:09;23.40;99.90
26623;DHT22;14254;50.968;5.366;2023-10-09T13:27:45;23.40;99.90
26623;DHT22;14254;50.968;5.366;2023-10-09T13:30:20;23.40;99.90
26623;DHT22;14254;50.968;5.366;2023-10-09T13:32:51;23.40;99.90
26623;DHT22;14254;50.968;5.366;2023-10-09T13:35:18;23.60;99.90
26623;DHT22;14254;50.968;5.366;2023-10-09T13:37:45;23.70;99.90
26623;DHT22;14254;50.968;5.366;2023-10-09T13:40:20;24.10;99.90
26623;DHT22;14254;50.968;5.366;2023-10-09T13:42:55;25.00;99.90
26623;DHT22;14254;50.968;5.366;2023-10-09T13:45:30;25.80;99.90
26623;DHT22;14254;50.968;5.366;2023-10-09T13:47:58;26.00;99.90
26623;DHT22;14254;50.968;5.366;2023-10-09T13:50:24;26.60;99.90
26623;DHT22;14254;50.968;5.366;2023-10-09T13:52:55;26.40;99.90
26623;DHT22;14254;50.968;5.366;2023-10-09T13:55:21;26.70;99.90
26623;DHT22;14254;50.968;5.366;2023-10-09T13:57:47;26.60;99.90
26623;DHT22;14254;50.968;5.366;2023-10-09T14:00:14;26.20;99.90
26623;DHT22;14254;50.968;5.366;2023-10-09T14:02:59;25.70;99.90
26623;DHT22;14254;50.968;5.366;2023-10-09T14:05:28;25.40;99.90
26623;DHT22;14254;50.968;5.366;2023-10-09T14:07:54;25.60;99.90
26623;DHT22;14254;50.968;5.366;2023-10-09T14:10:19;25.50;99.90
26623;DHT22;14254;50.968;5.366;2023-10-09T14:12:51;25.40;99.90
26623;DHT22;14254;50.968;5.366;2023-10-09T14:15:19;25.50;99.90
26623;DHT22;14254;50.968;5.366;2023-10-09T14:17:45;25.60;99.90
26623;DHT22;14254;50.968;5.366;2023-10-09T14:20:22;25.30;99.90
26623;DHT22;14254;50.968;5.366;2023-10-09T14:23:00;25.20;99.90
26623;DHT22;14254;50.968;5.366;2023-10-09T14:25:38;25.00;99.90
26623;DHT22;14254;50.968;5.366;2023-10-09T14:28:08;25.00;99.90
26623;DHT22;14254;50.968;5.366;2023-10-09T14:30:35;24.90;99.90
26623;DHT22;14254;50.968;5.366;2023-10-09T14:33:13;24.80;99.90
26623;DHT22;14254;50.968;5.366;2023-10-09T14:35:44;24.70;99.90
26623;DHT22;14254;50.968;5.366;2023-10-09T14:38:10;24.50;99.90
26623;DHT22;14254;50.968;5.366;2023-10-09T14:40:46;24.30;99.90
26623;DHT22;14254;50.968;5.366;2023-10-09T14:43:14;24.20;99.90
26623;DHT22;14254;50.968;5.366;2023-10-09T14:45:46;24.20;99.90
26623;DHT22;14254;50.968;5.366;2023-10-09T14:48:14;24.20;99.90
26623;DHT22;14254;50.968;5.366;2023-10-09T14:50:50;24.00;99.90
26623;DHT22;14254;50.968;5.366;2023-10-09T14:53:20;24.00;99.90
26623;DHT22;14254;50.968;5.366;2023-10-09T14:55:46;24.00;99.90
26623;DHT22;14254;50.968;5.366;2023-10-09T14:58:13;24.00;99.90
26623;DHT22;14254;50.968;5.366;2023-10-09T15:00:39;23.80;99.90
26623;DHT22;14254;50.968;5.366;2023-10-09T15:03:13;23.80;99.90
26623;DHT22;14254;50.968;5.366;2023-10-09T15:05:41;23.80;99.90
26623;DHT22;14254;50.968;5.366;2023-10-09T15:08:07;23.90;99.90
26623;DHT22;14254;50.968;5.366;2023-10-09T15:10:49;24.10;99.90
26623;DHT22;14254;50.968;5.366;2023-10-09T15:13:17;24.60;99.90
26623;DHT22;14254;50.968;5.366;2023-10-09T15:15:43;25.20;99.90
26623;DHT22;14254;50.968;5.366;2023-10-09T15:18:10;25.60;99.90
26623;DHT22;14254;50.968;5.366;2023-10-09T15:20:39;26.70;99.90
26623;DHT22;14254;50.968;5.366;2023-10-09T15:23:06;27.30;99.90
26623;DHT22;14254;50.968;5.366;2023-10-09T15:25:32;27.00;99.90
26623;DHT22;14254;50.968;5.366;2023-10-09T15:28:00;26.50;99.90
26623;DHT22;14254;50.968;5.366;2023-10-09T15:30:26;26.80;99.90
26623;DHT22;14254;50.968;5.366;2023-10-09T15:32:52;27.60;99.90
26623;DHT22;14254;50.968;5.366;2023-10-09T15:35:17;27.30;99.90
26623;DHT22;14254;50.968;5.366;2023-10-09T15:37:44;26.70;99.90
26623;DHT22;14254;50.968;5.366;2023-10-09T15:40:11;26.00;99.90
26623;DHT22;14254;50.968;5.366;2023-10-09T15:42:46;25.50;99.90
26623;DHT22;14254;50.968;5.366;2023-10-09T15:45:16;25.30;99.90
26623;DHT22;14254;50.968;5.366;2023-10-09T15:47:42;25.50;99.90
26623;DHT22;14254;50.968;5.366;2023-10-09T15:50:08;26.30;99.90
26623;DHT22;14254;50.968;5.366;2023-10-09T15:52:34;26.70;99.90
26623;DHT22;14254;50.968;5.366;2023-10-09T15:55:00;27.00;99.90
26623;DHT22;14254;50.968;5.366;2023-10-09T15:57:26;27.20;99.90
26623;DHT22;14254;50.968;5.366;2023-10-09T15:59:52;27.00;99.90
26623;DHT22;14254;50.968;5.366;2023-10-09T16:02:17;26.50;99.90
26623;DHT22;14254;50.968;5.366;2023-10-09T16:04:44;25.90;99.90
26623;DHT22;14254;50.968;5.366;2023-10-09T16:07:10;25.40;99.90
26623;DHT22;14254;50.968;5.366;2023-10-09T16:09:36;24.80;99.90
26623;DHT22;14254;50.968;5.366;2023-10-09T16:12:06;24.30;99.90
26623;DHT22;14254;50.968;5.366;2023-10-09T16:14:33;24.00;99.90
26623;DHT22;14254;50.968;5.366;2023-10-09T16:17:01;23.70;99.90
26623;DHT22;14254;50.968;5.366;2023-10-09T16:19:27;23.50;99.90
26623;DHT22;14254;50.968;5.366;2023-10-09T16:21:58;23.20;99.90
26623;DHT22;14254;50.968;5.366;2023-10-09T16:24:30;23.00;99.90
26623;DHT22;14254;50.968;5.366;2023-10-09T16:27:00;22.80;99.90
26623;DHT22;14254;50.968;5.366;2023-10-09T16:29:25;22.70;99.90
26623;DHT22;14254;50.968;5.366;2023-10-09T16:31:53;22.50;99.90
26623;DHT22;14254;50.968;5.366;2023-10-09T16:34:21;22.40;99.90
26623;DHT22;14254;50.968;5.366;2023-10-09T16:36:51;22.20;99.90
26623;DHT22;14254;50.968;5.366;2023-10-09T16:39:16;22.00;99.90